Time;durP1;ratioP1;P1;durP2;ratioP2;P2;SDS_P1;SDS_P2;PMS_P1;PMS_P2;Temp;Humidity;BMP_temperature;BMP_pressure;BME280_temperature;BME280_humidity;BME280_pressure;Samples;Min_cycle;Max_cycle;Signal;HPM_P1;HPM_P2
2022/10/22 00:01:06;;;;;;;8.10;4.20;;;;;;;8.81;47.14;101484.05;105614;1309;21971;-65
2022/10/22 00:03:32;;;;;;;5.70;3.30;;;;;;;8.80;47.33;101480.02;105643;1311;21970;-64
2022/10/22 00:05:59;;;;;;;7.10;3.70;;;;;;;8.78;47.57;101476.32;105691;1312;21957;-64
2022/10/22 00:08:25;;;;;;;7.60;3.90;;;;;;;8.78;47.59;101473.17;105674;1307;21944;-65
2022/10/22 00:10:52;;;;;;;8.30;3.60;;;;;;;8.81;47.56;101469.53;104943;1309;1002315;-64
2022/10/22 00:13:19;;;;;;;7.90;3.40;;;;;;;8.82;47.66;101464.64;105601;1307;21960;-65
2022/10/22 00:15:46;;;;;;;6.30;3.40;;;;;;;8.82;47.66;101461.86;105658;1308;21957;-65
2022/10/22 00:18:12;;;;;;;8.80;3.50;;;;;;;8.83;47.59;101463.60;105609;1308;21968;-65
2022/10/22 00:20:37;;;;;;;5.60;3.50;;;;;;;8.83;47.84;101460.81;105613;1308;21955;-64
2022/10/22 00:23:03;;;;;;;6.00;3.80;;;;;;;8.83;48.14;101456.61;105622;1308;21969;-66
2022/10/22 00:25:29;;;;;;;5.50;3.30;;;;;;;8.85;47.90;101457.84;105673;1300;21983;-64
2022/10/22 00:27:55;;;;;;;8.60;3.80;;;;;;;8.87;48.02;101450.00;105800;1308;21953;-64
2022/10/22 00:30:21;;;;;;;6.50;3.20;;;;;;;8.88;48.12;101443.55;105605;1308;21988;-65
2022/10/22 00:32:48;;;;;;;6.10;3.10;;;;;;;8.91;48.22;101441.64;105598;1308;21953;-65
2022/10/22 00:35:16;;;;;;;7.70;3.50;;;;;;;8.95;48.34;101439.08;105649;1308;21981;-64
2022/10/22 00:37:43;;;;;;;6.50;3.60;;;;;;;8.98;48.50;101429.83;105561;1310;21979;-65
2022/10/22 00:40:09;;;;;;;6.90;3.40;;;;;;;9.01;48.42;101428.46;106282;1307;21962;-64
2022/10/22 00:42:35;;;;;;;6.90;3.80;;;;;;;9.04;48.86;101423.23;105708;1312;22424;-65
2022/10/22 00:45:14;;;;;;;6.70;3.90;;;;;;;9.06;48.51;101418.35;105693;1308;21966;-64
2022/10/22 00:47:40;;;;;;;6.30;3.90;;;;;;;9.09;48.49;101418.03;105798;1308;21960;-65
2022/10/22 00:50:33;;;;;;;6.10;3.80;;;;;;;9.09;48.54;101424.52;105617;1308;21950;-63
2022/10/22 00:53:00;;;;;;;6.50;3.90;;;;;;;9.10;48.56;101422.95;105677;1308;23482;-64
2022/10/22 00:55:27;;;;;;;9.50;4.30;;;;;;;9.12;48.33;101422.80;106463;1308;21974;-64
2022/10/22 00:57:56;;;;;;;6.70;3.60;;;;;;;9.14;48.51;101428.59;105802;1307;22003;-65
2022/10/22 01:00:22;;;;;;;7.70;4.20;;;;;;;9.15;48.56;101430.70;105680;1307;21976;-64
2022/10/22 01:02:49;;;;;;;6.50;4.50;;;;;;;9.14;48.42;101430.69;105693;1304;21960;-65
2022/10/22 01:05:15;;;;;;;6.80;4.20;;;;;;;9.13;48.31;101428.58;105656;1312;21995;-64
2022/10/22 01:07:44;;;;;;;5.70;4.00;;;;;;;9.12;48.52;101428.91;105650;1311;21965;-64
2022/10/22 01:10:29;;;;;;;7.90;4.10;;;;;;;9.09;48.51;101426.79;105720;1310;21979;-62
2022/10/22 01:13:21;;;;;;;6.30;4.00;;;;;;;9.08;48.67;101427.83;105624;1308;21983;-64
2022/10/22 01:16:10;;;;;;;5.70;3.90;;;;;;;9.06;48.41;101422.73;105843;1307;23721;-63
2022/10/22 01:18:44;;;;;;;7.10;4.50;;;;;;;9.05;48.56;101415.20;105738;1302;21962;-63
2022/10/22 01:21:28;;;;;;;6.10;4.50;;;;;;;9.05;48.54;101413.27;105706;1300;21955;-63
2022/10/22 01:24:16;;;;;;;6.90;4.50;;;;;;;9.05;48.52;101409.77;105634;1308;21958;-63
2022/10/22 01:26:50;;;;;;;7.30;4.20;;;;;;;9.06;48.50;101407.84;105609;1308;21967;-65
2022/10/22 01:29:21;;;;;;;7.00;4.40;;;;;;;9.04;48.57;101404.69;105750;1308;21943;-64
2022/10/22 01:31:58;;;;;;;7.50;4.20;;;;;;;9.03;48.51;101400.30;105701;1305;21988;-64
2022/10/22 01:34:26;;;;;;;6.10;4.40;;;;;;;9.02;48.72;101399.06;105752;1312;21978;-62
2022/10/22 01:36:52;;;;;;;9.00;5.10;;;;;;;9.04;48.85;101397.52;105845;1310;21960;-63
2022/10/22 01:39:18;;;;;;;8.90;5.80;;;;;;;9.05;48.82;101398.04;105585;1308;21978;-62
2022/10/22 01:41:44;;;;;;;8.40;5.20;;;;;;;9.05;48.71;101395.07;105618;1310;21959;-65
2022/10/22 01:44:26;;;;;;;7.40;4.90;;;;;;;9.03;48.83;101391.55;105649;1307;21962;-63
2022/10/22 01:47:05;;;;;;;7.90;4.40;;;;;;;8.99;48.66;101389.39;105754;1307;21972;-64
2022/10/22 01:49:42;;;;;;;6.30;4.20;;;;;;;8.92;48.52;101388.27;105379;1308;326057;-62
2022/10/22 01:52:22;;;;;;;7.70;4.40;;;;;;;8.86;48.25;101389.59;105661;1308;21980;-64
2022/10/22 01:55:11;;;;;;;8.30;5.50;;;;;;;8.80;48.19;101391.29;105635;1308;21965;-62
2022/10/22 01:57:49;;;;;;;9.00;5.30;;;;;;;8.72;48.23;101384.02;105565;1312;21961;-63
2022/10/22 02:00:17;;;;;;;7.20;5.10;;;;;;;8.65;48.22;101379.05;105645;1305;23616;-63
2022/10/22 02:02:59;;;;;;;14.30;5.40;;;;;;;8.58;48.04;101377.58;105616;1302;21967;-64
2022/10/22 02:05:35;;;;;;;8.70;4.70;;;;;;;8.55;47.95;101375.78;106428;1307;21961;-64
2022/10/22 02:08:07;;;;;;;6.90;4.80;;;;;;;8.50;48.06;101370.99;105653;1307;21979;-62
2022/10/22 02:10:36;;;;;;;7.00;4.70;;;;;;;8.46;48.29;101371.95;105691;1305;23617;-64
2022/10/22 02:13:02;;;;;;;10.50;5.90;;;;;;;8.41;48.52;101370.33;105657;1307;21958;-63
2022/10/22 02:15:29;;;;;;;6.70;5.20;;;;;;;8.39;48.57;101367.85;105669;1307;21980;-64
2022/10/22 02:17:56;;;;;;;7.50;5.40;;;;;;;8.40;48.51;101358.59;105672;1308;21978;-63
2022/10/22 02:20:30;;;;;;;;;;;;;;;8.43;48.71;101352.34;105622;1307;21956;-65
2022/10/22 02:22:56;;;;;;;7.50;5.40;;;;;;;8.45;48.83;101353.77;105635;1311;22041;-63
2022/10/22 02:25:22;;;;;;;10.10;6.40;;;;;;;8.48;49.47;101353.29;105607;1307;21949;-64
2022/10/22 02:28:15;;;;;;;8.30;6.00;;;;;;;8.52;49.68;101347.23;105678;1307;21964;-65
2022/10/22 02:30:42;;;;;;;7.30;5.40;;;;;;;8.59;49.83;101347.66;105638;1309;21977;-62
2022/10/22 02:33:10;;;;;;;7.00;5.20;;;;;;;8.70;49.96;101346.02;105729;1308;21978;-62
2022/10/22 02:35:35;;;;;;;9.60;6.10;;;;;;;8.80;49.80;101347.19;105605;1305;22031;-62
2022/10/22 02:38:01;;;;;;;8.60;6.00;;;;;;;8.88;49.91;101345.15;106053;1299;21957;-64
2022/10/22 02:40:29;;;;;;;13.90;6.60;;;;;;;8.91;50.04;101342.40;106088;1303;21971;-65
2022/10/22 02:42:54;;;;;;;9.30;5.70;;;;;;;8.95;50.26;101341.56;106092;1300;21961;-62
2022/10/22 02:45:20;;;;;;;10.20;5.30;;;;;;;9.01;50.05;101340.23;105988;1304;21965;-66
2022/10/22 02:47:46;;;;;;;8.50;4.80;;;;;;;9.04;50.03;101340.26;105890;1304;21971;-64
2022/10/22 02:50:12;;;;;;;9.20;4.90;;;;;;;9.10;50.30;101341.52;106112;1304;22072;-62
2022/10/22 02:52:39;;;;;;;7.80;5.10;;;;;;;9.14;50.21;101345.41;106097;1301;21986;-65
2022/10/22 02:55:06;;;;;;;7.10;5.10;;;;;;;9.18;50.31;101346.33;106139;1302;22008;-63
2022/10/22 02:57:33;;;;;;;9.10;5.00;;;;;;;9.19;50.26;101339.68;106106;1303;21969;-63
2022/10/22 02:59:59;;;;;;;12.60;5.00;;;;;;;9.23;50.63;101337.63;106118;1303;21973;-63
2022/10/22 03:02:26;;;;;;;8.20;4.40;;;;;;;9.29;50.74;101337.67;106092;1303;21975;-63
2022/10/22 03:04:51;;;;;;;8.80;4.30;;;;;;;9.35;50.44;101340.87;106182;1303;21959;-64
2022/10/22 03:07:17;;;;;;;8.40;4.70;;;;;;;9.41;50.49;101340.21;106111;1304;21972;-65
2022/10/22 03:09:43;;;;;;;8.70;4.50;;;;;;;9.48;50.48;101339.56;106108;1303;21968;-64
2022/10/22 03:12:09;;;;;;;11.70;3.80;;;;;;;9.54;50.39;101338.04;106178;1304;21976;-63
2022/10/22 03:14:35;;;;;;;8.30;4.40;;;;;;;9.59;50.12;101336.48;106157;1303;21995;-63
2022/10/22 03:17:02;;;;;;;6.00;3.90;;;;;;;9.62;50.04;101337.57;106140;1303;21962;-66
2022/10/22 03:19:27;;;;;;;7.30;4.50;;;;;;;9.64;50.10;101336.01;106250;1304;21968;-65
2022/10/22 03:22:01;;;;;;;8.30;3.80;;;;;;;9.68;50.60;101335.87;106171;1289;21971;-66
2022/10/22 03:24:30;;;;;;;8.10;4.10;;;;;;;9.74;51.02;101332.20;106241;1302;21958;-66
2022/10/22 03:26:57;;;;;;;7.30;4.00;;;;;;;9.82;51.20;101327.54;106231;1299;21959;-66
2022/10/22 03:29:22;;;;;;;7.70;4.20;;;;;;;9.90;51.23;101318.11;106026;1304;21970;-66
2022/10/22 03:31:48;;;;;;;9.70;4.10;;;;;;;9.97;50.95;101315.87;106143;1303;21996;-63
2022/10/22 03:34:15;;;;;;;10.40;3.90;;;;;;;10.02;50.72;101318.88;106226;1303;21990;-65
2022/10/22 03:36:41;;;;;;;10.50;4.20;;;;;;;10.08;50.74;101321.37;106181;1302;21975;-66
2022/10/22 03:39:07;;;;;;;6.80;4.30;;;;;;;10.12;50.70;101318.58;106033;1304;22002;-64
2022/10/22 03:41:33;;;;;;;8.90;3.80;;;;;;;10.16;50.48;101312.63;105943;1303;21969;-64
2022/10/22 03:44:00;;;;;;;9.10;3.90;;;;;;;10.20;50.90;101315.63;106186;1304;21961;-65
2022/10/22 03:46:25;;;;;;;9.60;3.60;;;;;;;10.23;50.78;101314.07;106275;1296;21954;-64
2022/10/22 03:48:51;;;;;;;10.90;4.10;;;;;;;10.26;50.60;101310.39;106159;1303;21957;-64
2022/10/22 03:51:17;;;;;;;9.10;4.00;;;;;;;10.30;50.59;101306.36;106235;1304;21956;-64
2022/10/22 03:53:43;;;;;;;8.60;4.00;;;;;;;10.33;50.92;101306.57;106280;1304;21970;-64
2022/10/22 03:56:10;;;;;;;9.50;4.10;;;;;;;10.35;51.17;101302.18;106062;1304;21966;-65
2022/10/22 03:58:37;;;;;;;6.70;3.40;;;;;;;10.40;51.13;101296.42;106256;1303;21965;-64
2022/10/22 04:01:04;;;;;;;8.70;4.10;;;;;;;10.47;50.98;101292.59;106154;1303;21962;-65
2022/10/22 04:03:30;;;;;;;6.90;3.70;;;;;;;10.53;51.45;101288.23;106230;1303;21956;-64
2022/10/22 04:06:01;;;;;;;7.00;3.60;;;;;;;10.60;51.54;101284.89;106207;1303;21992;-64
2022/10/22 04:08:26;;;;;;;11.50;3.80;;;;;;;10.67;51.48;101281.93;106165;1304;21974;-65
2022/10/22 04:10:52;;;;;;;9.20;4.10;;;;;;;10.73;52.28;101275.98;106113;1303;21969;-64
2022/10/22 04:13:19;;;;;;;5.90;3.00;;;;;;;10.82;51.89;101270.72;106129;1303;21956;-66
2022/10/22 04:15:46;;;;;;;6.30;3.40;;;;;;;10.93;52.12;101269.85;106175;1303;21959;-64
2022/10/22 04:18:12;;;;;;;7.20;4.20;;;;;;;11.00;52.21;101271.43;106358;1304;22004;-66
2022/10/22 04:20:37;;;;;;;8.80;3.30;;;;;;;11.08;52.03;101267.92;106262;1303;21962;-64
2022/10/22 04:23:04;;;;;;;7.00;3.30;;;;;;;11.15;51.93;101269.33;106163;1303;21969;-65
2022/10/22 04:25:30;;;;;;;7.10;3.20;;;;;;;11.22;51.84;101270.03;106128;1295;21981;-64
2022/10/22 04:27:55;;;;;;;10.10;3.30;;;;;;;11.29;52.08;101270.90;106216;1303;21956;-64
2022/10/22 04:30:22;;;;;;;8.60;4.10;;;;;;;11.37;51.77;101267.90;106117;1303;21959;-65
2022/10/22 04:32:48;;;;;;;7.20;3.70;;;;;;;11.42;51.90;101266.14;106144;1302;22014;-65
2022/10/22 04:35:14;;;;;;;7.20;3.50;;;;;;;11.48;51.72;101270.88;106208;1303;21978;-64
2022/10/22 04:37:40;;;;;;;5.90;3.20;;;;;;;11.53;51.51;101273.48;106265;1290;22020;-62
2022/10/22 04:40:07;;;;;;;10.20;3.50;;;;;;;11.59;51.54;101269.42;106276;1304;23599;-63
2022/10/22 04:42:33;;;;;;;6.40;3.90;;;;;;;11.64;51.44;101271.55;106189;1304;21966;-66
2022/10/22 04:44:58;;;;;;;7.90;3.20;;;;;;;11.67;51.41;101275.05;106196;1302;22002;-65
2022/10/22 04:47:24;;;;;;;7.30;3.30;;;;;;;11.69;51.51;101268.73;106152;1303;21971;-63
2022/10/22 04:49:50;;;;;;;6.20;3.50;;;;;;;11.71;51.33;101272.23;106038;1301;21976;-64
2022/10/22 04:52:16;;;;;;;6.70;3.30;;;;;;;11.75;51.29;101274.48;106151;1300;21974;-65
2022/10/22 04:54:43;;;;;;;5.10;3.00;;;;;;;11.78;51.31;101275.37;106153;1303;21963;-65
2022/10/22 04:57:08;;;;;;;4.70;2.90;;;;;;;11.81;51.63;101273.42;106224;1304;21958;-63
2022/10/22 04:59:34;;;;;;;5.90;3.10;;;;;;;11.84;51.64;101274.12;106189;1302;21971;-63
2022/10/22 05:02:00;;;;;;;4.90;3.00;;;;;;;11.87;51.79;101275.52;106232;1303;21961;-64
2022/10/22 05:04:25;;;;;;;10.50;3.10;;;;;;;11.89;51.58;101276.58;106283;1303;21971;-63
2022/10/22 05:06:53;;;;;;;5.00;3.20;;;;;;;11.94;51.46;101273.20;106306;1299;22042;-65
2022/10/22 05:09:19;;;;;;;8.00;3.10;;;;;;;11.98;51.81;101272.50;106128;1303;21962;-65
2022/10/22 05:11:47;;;;;;;6.20;3.40;;;;;;;12.04;52.04;101268.09;106121;1303;21991;-65
2022/10/22 05:14:16;;;;;;;7.80;3.30;;;;;;;12.12;52.00;101264.38;106189;1303;21971;-63
2022/10/22 05:16:41;;;;;;;7.80;3.50;;;;;;;12.19;51.91;101262.41;106188;1302;21960;-63
2022/10/22 05:19:13;;;;;;;6.10;3.10;;;;;;;12.25;51.93;101262.55;106056;1304;21964;-63
2022/10/22 05:21:40;;;;;;;8.20;2.80;;;;;;;12.34;51.80;101263.38;105887;1304;21950;-65
2022/10/22 05:24:06;;;;;;;6.60;3.30;;;;;;;12.42;51.69;101260.69;106228;1293;21971;-63
2022/10/22 05:26:32;;;;;;;5.50;3.20;;;;;;;12.50;52.05;101257.48;106193;1303;21973;-64
2022/10/22 05:28:58;;;;;;;6.50;3.40;;;;;;;12.58;52.13;101256.91;106157;1303;21970;-65
2022/10/22 05:31:24;;;;;;;4.70;2.30;;;;;;;12.66;51.97;101256.50;106200;1302;21979;-65
2022/10/22 05:33:52;;;;;;;6.30;3.10;;;;;;;12.74;51.88;101253.45;106107;1303;21968;-65
2022/10/22 05:36:20;;;;;;;8.10;3.70;;;;;;;12.81;51.79;101251.45;106198;1303;21947;-66
2022/10/22 05:38:46;;;;;;;10.60;3.80;;;;;;;12.88;51.86;101250.17;106282;1304;21957;-66
2022/10/22 05:41:16;;;;;;;7.90;3.30;;;;;;;12.94;51.74;101253.65;106216;1302;21971;-64
2022/10/22 05:43:42;;;;;;;3.70;2.50;;;;;;;13.00;51.83;101254.66;106192;1303;21959;-65
2022/10/22 05:46:11;;;;;;;4.60;2.30;;;;;;;13.09;52.20;101255.29;106174;1303;21984;-63
2022/10/22 05:48:43;;;;;;;9.60;2.50;;;;;;;13.23;52.99;101260.09;106111;1298;21962;-65
2022/10/22 05:51:10;;;;;;;7.00;2.40;;;;;;;13.40;52.53;101259.42;106094;1303;21953;-65
2022/10/22 05:53:37;;;;;;;7.80;2.50;;;;;;;13.55;52.62;101260.16;106315;1302;21971;-65
2022/10/22 05:56:06;;;;;;;3.90;2.00;;;;;;;13.72;52.29;101255.05;106298;1303;21962;-67
2022/10/22 05:58:32;;;;;;;5.00;2.10;;;;;;;13.88;52.53;101252.04;106226;1303;23208;-66
2022/10/22 06:01:05;;;;;;;12.50;2.40;;;;;;;14.02;52.95;101256.63;106283;1303;21967;-65
2022/10/22 06:03:34;;;;;;;10.30;2.30;;;;;;;14.20;52.81;101252.70;106220;1303;23073;-66
2022/10/22 06:06:02;;;;;;;6.60;2.10;;;;;;;14.36;52.30;101249.65;106192;1296;21972;-67
2022/10/22 06:08:30;;;;;;;10.30;2.70;;;;;;;14.50;52.38;101248.92;105780;1304;23976;-68
2022/10/22 06:10:56;;;;;;;5.60;2.50;;;;;;;14.62;52.10;101250.70;106144;1303;21961;-66
2022/10/22 06:13:23;;;;;;;11.50;3.90;;;;;;;14.73;52.25;101252.31;106028;1304;21985;-67
2022/10/22 06:15:51;;;;;;;13.60;4.90;;;;;;;14.82;51.94;101255.52;106262;1303;21966;-66
2022/10/22 06:18:18;;;;;;;11.40;4.90;;;;;;;14.92;51.81;101255.73;106185;1303;21970;-68
2022/10/22 06:20:46;;;;;;;10.10;4.40;;;;;;;15.01;51.93;101262.83;106132;1303;23737;-65
2022/10/22 06:23:13;;;;;;;13.20;4.20;;;;;;;15.09;51.99;101265.52;106042;1301;21965;-65
2022/10/22 06:25:39;;;;;;;7.30;3.70;;;;;;;15.14;51.75;101268.27;106705;1303;21998;-67
2022/10/22 06:28:04;;;;;;;8.00;2.80;;;;;;;15.22;51.53;101271.31;106011;1303;22043;-68
2022/10/22 06:30:30;;;;;;;7.20;3.00;;;;;;;15.29;51.27;101275.77;106742;1303;21957;-64
2022/10/22 06:32:58;;;;;;;5.80;2.50;;;;;;;15.35;51.37;101281.69;106080;1303;21951;-65
2022/10/22 06:35:25;;;;;;;7.90;2.60;;;;;;;15.41;51.28;101283.54;106174;1303;22008;-68
2022/10/22 06:37:51;;;;;;;8.60;2.00;;;;;;;15.49;50.94;101283.21;105771;1301;23065;-68
2022/10/22 06:40:17;;;;;;;6.50;2.60;;;;;;;15.57;50.99;101282.34;105899;1304;22847;-66
2022/10/22 06:42:44;;;;;;;6.70;2.50;;;;;;;15.65;51.01;101276.02;106087;1303;21951;-65
2022/10/22 06:45:09;;;;;;;5.60;2.30;;;;;;;15.74;50.90;101279.91;106087;1303;21959;-66
2022/10/22 06:47:35;;;;;;;5.60;2.10;;;;;;;15.81;50.88;101279.25;106151;1302;21965;-66
2022/10/22 06:50:01;;;;;;;5.40;2.70;;;;;;;15.88;51.03;101279.85;106052;1303;23094;-68
2022/10/22 06:52:27;;;;;;;5.60;2.30;;;;;;;15.96;50.92;101272.95;105697;1304;21962;-68
2022/10/22 06:54:55;;;;;;;6.50;2.10;;;;;;;16.06;50.84;101273.46;105808;1304;22008;-66
2022/10/22 06:57:21;;;;;;;5.10;1.70;;;;;;;16.19;51.08;101269.48;106183;1303;21982;-71
2022/10/22 06:59:47;;;;;;;6.00;1.50;;;;;;;16.34;51.08;101264.37;106099;1303;22093;-64
2022/10/22 07:02:13;;;;;;;3.20;1.40;;;;;;;16.49;51.06;101260.14;106121;1303;21965;-71
2022/10/22 07:04:38;;;;;;;4.80;1.60;;;;;;;16.59;51.16;101255.84;106109;1301;22032;-72
2022/10/22 07:07:04;;;;;;;5.80;2.00;;;;;;;16.72;50.68;101249.68;106108;1303;21962;-66
2022/10/22 07:09:30;;;;;;;5.60;1.50;;;;;;;16.84;50.19;101239.84;106131;1303;21957;-64
2022/10/22 07:11:56;;;;;;;5.00;1.30;;;;;;;16.89;50.08;101235.61;106147;1301;21972;-66
2022/10/22 07:14:22;;;;;;;8.70;1.80;;;;;;;16.96;50.09;101239.73;106249;1303;21970;-66
2022/10/22 07:16:48;;;;;;;3.70;1.30;;;;;;;17.01;49.92;101241.73;106089;1303;21974;-66
2022/10/22 07:19:15;;;;;;;1.90;1.10;;;;;;;17.07;49.84;101236.27;106167;1304;21962;-67
2022/10/22 07:21:42;;;;;;;5.50;1.90;;;;;;;17.11;49.64;101235.46;106192;1304;21972;-63
2022/10/22 07:24:08;;;;;;;4.00;1.60;;;;;;;17.11;49.55;101236.16;106204;1302;22770;-63
2022/10/22 07:26:35;;;;;;;10.50;2.10;;;;;;;17.19;49.36;101234.02;106206;1303;21974;-66
2022/10/22 07:29:02;;;;;;;6.30;1.70;;;;;;;17.20;49.32;101236.11;106054;1303;21965;-66
2022/10/22 07:31:28;;;;;;;4.30;1.30;;;;;;;17.24;49.26;101233.33;106193;1303;21963;-66
2022/10/22 07:33:54;;;;;;;5.00;1.40;;;;;;;17.27;49.11;101235.02;106048;1303;21970;-65
2022/10/22 07:36:21;;;;;;;6.00;1.70;;;;;;;17.25;49.15;101233.48;106057;1303;21972;-62
2022/10/22 07:38:48;;;;;;;4.80;1.70;;;;;;;17.30;49.08;101226.63;106154;1304;21962;-66
2022/10/22 07:41:15;;;;;;;6.60;1.40;;;;;;;17.40;48.94;101224.94;106330;1303;23159;-65
2022/10/22 07:43:41;;;;;;;7.90;1.50;;;;;;;17.46;48.93;101224.23;106130;1302;21965;-62
2022/10/22 07:46:07;;;;;;;3.90;1.50;;;;;;;17.55;49.01;101216.19;106101;1303;22409;-66
2022/10/22 07:48:34;;;;;;;5.00;1.60;;;;;;;17.64;48.81;101215.91;106096;1303;22422;-62
2022/10/22 07:51:00;;;;;;;7.10;1.90;;;;;;;17.78;48.66;101218.19;106060;1303;21985;-62
2022/10/22 07:53:26;;;;;;;6.30;1.70;;;;;;;17.87;48.47;101221.33;106136;1303;21973;-66
2022/10/22 07:55:52;;;;;;;7.20;1.70;;;;;;;17.97;48.23;101213.56;106101;1303;23142;-65
2022/10/22 07:58:18;;;;;;;8.60;2.10;;;;;;;18.05;48.12;101206.77;106101;1298;21988;-63
2022/10/22 08:00:44;;;;;;;7.30;1.50;;;;;;;18.10;47.82;101211.42;106357;1295;21957;-66
2022/10/22 08:03:11;;;;;;;7.00;1.40;;;;;;;18.08;47.76;101204.20;105980;1303;21956;-62
2022/10/22 08:05:40;;;;;;;6.50;1.80;;;;;;;18.12;47.71;101199.98;106121;1303;22002;-66
2022/10/22 08:08:06;;;;;;;8.00;3.10;;;;;;;18.24;47.66;101200.88;105715;1303;21970;-61
2022/10/22 08:10:32;;;;;;;7.30;1.90;;;;;;;18.38;47.47;101204.02;105921;1305;21974;-65
2022/10/22 08:12:59;;;;;;;9.90;1.70;;;;;;;18.45;47.15;101202.53;106155;1303;21951;-63
2022/10/22 08:15:26;;;;;;;7.00;1.50;;;;;;;18.55;47.04;101203.27;106023;1304;21954;-66
2022/10/22 08:17:52;;;;;;;7.00;1.30;;;;;;;18.57;46.95;101200.89;106186;1303;21963;-66
2022/10/22 08:20:17;;;;;;;8.70;1.40;;;;;;;18.59;46.68;101201.02;106211;1303;21965;-66
2022/10/22 08:22:43;;;;;;;10.50;1.60;;;;;;;18.61;46.64;101195.44;106040;1302;21972;-62
2022/10/22 08:25:09;;;;;;;4.40;1.30;;;;;;;18.58;46.57;101189.65;106154;1303;21957;-61
2022/10/22 08:27:35;;;;;;;5.00;1.50;;;;;;;18.57;46.66;101189.16;106010;1303;23607;-67
2022/10/22 08:30:01;;;;;;;9.20;2.30;;;;;;;18.62;46.64;101185.08;106135;1303;21961;-66
2022/10/22 08:32:26;;;;;;;5.00;1.50;;;;;;;18.65;46.55;101183.59;106089;1303;21961;-66
2022/10/22 08:34:54;;;;;;;5.30;1.90;;;;;;;18.69;46.64;101181.11;106075;1303;21975;-61
2022/10/22 08:37:21;;;;;;;4.20;1.50;;;;;;;18.76;46.67;101183.55;106067;1303;21967;-66
2022/10/22 08:39:46;;;;;;;10.20;1.60;;;;;;;18.88;46.52;101183.70;106159;1302;21971;-61
2022/10/22 08:42:34;;;;;;;20.60;2.90;;;;;;;18.94;46.18;101179.42;106082;1303;21989;-66
2022/10/22 08:45:08;;;;;;;6.00;2.00;;;;;;;18.96;46.05;101180.43;106096;1303;21965;-65
2022/10/22 08:47:49;;;;;;;6.00;1.70;;;;;;;19.06;45.94;101173.32;106105;1299;21974;-61
2022/10/22 08:50:18;;;;;;;2.90;1.30;;;;;;;19.09;45.61;101169.30;106160;1303;21959;-61
2022/10/22 08:52:45;;;;;;;7.60;1.80;;;;;;;19.09;45.42;101165.21;106129;1303;22011;-61
2022/10/22 08:55:12;;;;;;;8.50;2.10;;;;;;;19.05;45.40;101156.63;106096;1302;21970;-65
2022/10/22 08:57:50;;;;;;;6.40;1.70;;;;;;;19.01;45.34;101160.71;106142;1299;21958;-65
2022/10/22 09:00:33;;;;;;;4.80;1.50;;;;;;;18.90;45.26;101168.16;106139;1303;21962;-66
2022/10/22 09:03:27;;;;;;;5.20;1.60;;;;;;;18.92;45.52;101163.83;106190;1303;22033;-61
2022/10/22 09:06:08;;;;;;;5.30;1.80;;;;;;;18.96;45.60;101155.54;106080;1303;21960;-61
2022/10/22 09:08:33;;;;;;;6.10;1.60;;;;;;;18.99;45.61;101151.52;106039;1303;21965;-64
2022/10/22 09:11:03;;;;;;;2.90;1.50;;;;;;;18.95;45.54;101150.06;107689;1303;21809;-66
2022/10/22 09:13:29;;;;;;;5.20;1.70;;;;;;;18.96;45.25;101141.81;106103;1302;23157;-64
2022/10/22 09:16:00;;;;;;;3.60;1.60;;;;;;;18.98;45.09;101142.47;106137;1301;21965;-61
2022/10/22 09:18:38;;;;;;;7.30;1.90;;;;;;;18.96;45.03;101137.21;106168;1303;22073;-65
2022/10/22 09:21:26;;;;;;;7.10;2.20;;;;;;;18.84;45.14;101136.90;106105;1303;21971;-62
2022/10/22 09:23:58;;;;;;;8.00;2.20;;;;;;;18.91;45.20;101137.36;105962;1303;21963;-61
2022/10/22 09:26:23;;;;;;;7.00;1.60;;;;;;;18.93;45.10;101140.86;106356;1303;21998;-61
2022/10/22 09:28:49;;;;;;;16.50;2.20;;;;;;;18.92;45.21;101138.41;106084;1304;21962;-61
2022/10/22 09:31:16;;;;;;;5.50;1.90;;;;;;;18.84;45.22;101140.80;106170;1302;21968;-61
2022/10/22 09:33:42;;;;;;;9.20;1.90;;;;;;;18.86;45.26;101135.04;106178;1294;21968;-61
2022/10/22 09:36:14;;;;;;;6.30;1.60;;;;;;;18.94;45.28;101129.80;106272;1303;21974;-62
2022/10/22 09:38:44;;;;;;;12.20;2.30;;;;;;;19.00;45.14;101125.52;106099;1304;23728;-61
2022/10/22 09:41:10;;;;;;;4.10;1.60;;;;;;;19.05;44.92;101123.02;106121;1303;21991;-65
2022/10/22 09:43:36;;;;;;;5.20;1.80;;;;;;;19.07;44.93;101121.89;105729;1303;21979;-67
2022/10/22 09:46:04;;;;;;;6.90;2.00;;;;;;;19.19;45.07;101118.27;106073;1303;21989;-66
2022/10/22 09:48:40;;;;;;;4.90;1.70;;;;;;;19.30;44.77;101113.95;106194;1303;21980;-67
2022/10/22 09:51:10;;;;;;;5.10;1.80;;;;;;;19.42;44.40;101112.09;106172;1303;21977;-67
2022/10/22 09:53:40;;;;;;;4.20;1.90;;;;;;;19.46;44.42;101102.67;106137;1303;21959;-66
2022/10/22 09:56:09;;;;;;;10.40;1.90;;;;;;;19.46;44.38;101101.23;106262;1303;22020;-66
2022/10/22 09:58:42;;;;;;;5.60;1.80;;;;;;;19.44;44.43;101102.03;106227;1303;21962;-65
2022/10/22 10:01:18;;;;;;;5.00;1.80;;;;;;;19.39;44.33;101097.09;106212;1303;21951;-61
2022/10/22 10:03:44;;;;;;;7.60;2.60;;;;;;;19.33;44.33;101095.86;106091;1303;22004;-62
2022/10/22 10:06:11;;;;;;;6.10;2.20;;;;;;;19.27;44.28;101090.57;106048;1301;22131;-67
2022/10/22 10:08:37;;;;;;;15.10;2.50;;;;;;;19.22;44.33;101092.88;106102;1304;21967;-67
2022/10/22 10:11:18;;;;;;;6.10;1.90;;;;;;;19.09;44.51;101092.65;106232;1302;21973;-68
2022/10/22 10:14:09;;;;;;;7.90;3.50;;;;;;;18.98;44.76;101094.47;106183;1304;21966;-61
2022/10/22 10:17:01;;;;;;;6.90;2.40;;;;;;;18.87;44.86;101100.49;106136;1303;21971;-62
2022/10/22 10:19:58;;;;;;;22.10;2.70;;;;;;;18.77;44.91;101099.98;106440;1303;21965;-62
2022/10/22 10:23:01;;;;;;;4.40;1.70;;;;;;;18.66;45.15;101094.48;106213;1302;22428;-62
2022/10/22 10:25:33;;;;;;;6.00;2.00;;;;;;;18.54;45.29;101085.13;106135;1301;21969;-65
2022/10/22 10:28:38;;;;;;;5.50;2.30;;;;;;;18.49;45.38;101084.42;106151;1303;21963;-62
2022/10/22 10:31:22;;;;;;;7.70;3.30;;;;;;;18.43;45.47;101083.89;106114;1303;21972;-67
2022/10/22 10:34:08;;;;;;;5.90;2.60;;;;;;;18.36;45.65;101082.20;106040;1303;21963;-62
2022/10/22 10:36:50;;;;;;;13.00;4.20;;;;;;;18.31;45.77;101084.13;106117;1301;21958;-67
2022/10/22 10:39:24;;;;;;;8.90;4.40;;;;;;;18.26;45.97;101083.22;106175;1296;21971;-65
2022/10/22 10:42:18;;;;;;;17.80;9.90;;;;;;;18.23;45.96;101083.48;106129;1303;21966;-65
2022/10/22 10:44:54;;;;;;;11.50;2.60;;;;;;;18.19;46.10;101080.41;106127;1303;21964;-66
2022/10/22 10:47:36;;;;;;;13.30;2.70;;;;;;;18.11;46.51;101085.83;106059;1303;23125;-61
2022/10/22 10:50:15;;;;;;;8.40;2.60;;;;;;;18.13;46.45;101092.35;106157;1303;21965;-65
2022/10/22 10:52:49;;;;;;;535.70;258.70;;;;;;;18.06;46.95;101090.98;106128;1302;21961;-62
2022/10/22 10:55:27;;;;;;;51.50;36.90;;;;;;;18.05;46.94;101091.89;106133;1303;21992;-65
2022/10/22 10:58:04;;;;;;;24.50;4.60;;;;;;;18.07;46.87;101094.16;106184;1303;22012;-63
2022/10/22 11:00:34;;;;;;;40.10;12.70;;;;;;;18.07;46.71;101093.41;106332;1304;21972;-66
2022/10/22 11:03:13;;;;;;;13.50;3.40;;;;;;;18.09;46.54;101088.02;106377;1299;22403;-67
2022/10/22 11:05:57;;;;;;;17.60;8.70;;;;;;;18.14;46.46;101078.83;106191;1301;23094;-66
2022/10/22 11:08:30;;;;;;;11.20;5.20;;;;;;;18.19;46.50;101073.87;106112;1299;21973;-66
2022/10/22 11:11:06;;;;;;;10.20;4.20;;;;;;;18.20;46.62;101071.33;106159;1299;21962;-67
2022/10/22 11:13:42;;;;;;;8.10;3.00;;;;;;;18.25;46.54;101067.62;106147;1303;21985;-65
2022/10/22 11:16:25;;;;;;;8.40;2.90;;;;;;;18.31;46.71;101063.54;106170;1303;21972;-61
2022/10/22 11:19:11;;;;;;;9.40;2.40;;;;;;;18.32;46.79;101057.45;106161;1297;23358;-61
2022/10/22 11:21:39;;;;;;;137.20;84.50;;;;;;;18.31;46.85;101051.60;106132;1303;21960;-62
2022/10/22 11:24:04;;;;;;;14.70;6.90;;;;;;;18.29;47.03;101049.20;106115;1303;21965;-66
2022/10/22 11:26:39;;;;;;;14.70;3.80;;;;;;;18.35;46.99;101048.11;106086;1303;21959;-61
2022/10/22 11:29:06;;;;;;;9.70;3.60;;;;;;;18.40;46.88;101044.91;106960;1302;21972;-61
2022/10/22 11:31:32;;;;;;;7.20;2.80;;;;;;;18.46;46.72;101037.78;106172;1302;21989;-62